createdAt,value
2022-10-17T00:02:21.758Z,14.90
2022-10-17T00:05:07.542Z,14.90
2022-10-17T00:07:53.183Z,14.80
2022-10-17T00:10:39.509Z,14.80
2022-10-17T00:13:25.529Z,14.80
2022-10-17T00:16:11.172Z,14.80
2022-10-17T00:18:57.239Z,14.70
2022-10-17T00:21:42.583Z,14.70
2022-10-17T00:24:30.014Z,14.60
2022-10-17T00:27:15.574Z,14.80
2022-10-17T00:30:01.167Z,14.60
2022-10-17T00:32:46.778Z,14.50
2022-10-17T00:35:32.455Z,14.60
2022-10-17T00:38:17.851Z,14.60
2022-10-17T00:41:04.030Z,15.10
2022-10-17T00:43:54.399Z,14.60
2022-10-17T00:46:40.113Z,14.60
2022-10-17T00:49:28.639Z,14.60
2022-10-17T00:52:18.192Z,15.60
2022-10-17T00:55:13.888Z,14.60
2022-10-17T00:58:01.966Z,14.50
2022-10-17T01:00:48.598Z,14.60
2022-10-17T01:03:34.060Z,14.50
2022-10-17T01:06:19.554Z,14.50
2022-10-17T01:09:05.256Z,14.30
2022-10-17T01:12:11.716Z,14.20
2022-10-17T01:15:15.603Z,14.20
2022-10-17T01:18:27.971Z,14.10
2022-10-17T01:21:27.873Z,14.10
2022-10-17T01:24:40.034Z,14.10
2022-10-17T01:27:38.781Z,14.00
2022-10-17T01:31:09.367Z,13.90
2022-10-17T01:33:58.048Z,13.90
2022-10-17T01:36:55.147Z,13.80
2022-10-17T01:39:56.137Z,13.70
2022-10-17T01:42:58.792Z,13.60
2022-10-17T01:45:54.937Z,13.70
2022-10-17T01:48:43.169Z,13.60
2022-10-17T01:51:37.672Z,13.60
2022-10-17T01:54:25.060Z,13.50
2022-10-17T01:57:36.417Z,13.80
2022-10-17T02:00:24.645Z,13.40
2022-10-17T02:03:15.031Z,13.30
2022-10-17T02:06:01.318Z,13.40
2022-10-17T02:08:50.037Z,13.30
2022-10-17T02:11:35.449Z,13.20
2022-10-17T02:14:43.787Z,13.40
2022-10-17T02:17:47.563Z,13.00
2022-10-17T02:21:05.392Z,13.00
2022-10-17T02:24:19.682Z,13.10
2022-10-17T02:27:17.129Z,12.90
2022-10-17T02:30:10.481Z,12.90
2022-10-17T02:33:04.676Z,12.90
2022-10-17T02:35:54.532Z,12.80
2022-10-17T02:38:41.054Z,13.40
2022-10-17T02:41:26.979Z,12.70
2022-10-17T02:44:12.393Z,12.80
2022-10-17T02:47:12.698Z,12.80
2022-10-17T02:50:01.242Z,12.80
2022-10-17T02:52:55.382Z,12.80
2022-10-17T02:55:47.852Z,12.60
2022-10-17T02:58:35.347Z,12.60
2022-10-17T03:01:21.899Z,13.20
2022-10-17T03:04:12.937Z,12.80
2022-10-17T03:06:58.265Z,12.60
2022-10-17T03:09:43.662Z,12.60
2022-10-17T03:12:29.548Z,13.20
2022-10-17T03:15:15.450Z,12.40
2022-10-17T03:18:01.074Z,12.50
2022-10-17T03:20:46.653Z,12.50
2022-10-17T03:23:32.330Z,12.40
2022-10-17T03:26:17.727Z,12.50
2022-10-17T03:29:03.399Z,12.40
2022-10-17T03:31:49.096Z,12.40
2022-10-17T03:34:34.771Z,12.50
2022-10-17T03:37:20.368Z,12.40
2022-10-17T03:40:06.441Z,12.50
2022-10-17T03:42:52.022Z,12.40
2022-10-17T03:45:37.432Z,12.30
2022-10-17T03:48:23.056Z,12.30
2022-10-17T03:51:09.725Z,12.40
2022-10-17T03:53:55.016Z,12.20
2022-10-17T03:56:40.476Z,12.20
2022-10-17T03:59:25.711Z,12.50
2022-10-17T04:02:11.474Z,12.10
2022-10-17T04:04:56.774Z,12.00
2022-10-17T04:07:42.301Z,12.90
2022-10-17T04:10:27.954Z,12.00
2022-10-17T04:13:13.262Z,12.00
2022-10-17T04:16:04.979Z,12.00
2022-10-17T04:18:56.000Z,11.70
2022-10-17T04:21:41.599Z,11.70
2022-10-17T04:24:26.847Z,11.80
2022-10-17T04:27:12.482Z,11.90
2022-10-17T04:29:57.792Z,11.90
2022-10-17T04:32:43.354Z,11.90
2022-10-17T04:35:29.035Z,11.90
2022-10-17T04:38:14.520Z,11.90
2022-10-17T04:41:04.527Z,11.90
2022-10-17T04:43:51.238Z,11.90
2022-10-17T04:46:37.122Z,11.90
2022-10-17T04:49:22.496Z,12.30
2022-10-17T04:52:08.095Z,11.80
2022-10-17T04:54:53.964Z,11.80
2022-10-17T04:57:39.315Z,11.80
2022-10-17T05:00:24.818Z,12.10
2022-10-17T05:03:10.556Z,11.60
2022-10-17T05:05:56.122Z,11.70
2022-10-17T05:08:42.003Z,11.60
2022-10-17T05:11:29.246Z,11.80
2022-10-17T05:14:15.861Z,11.80
2022-10-17T05:17:01.107Z,11.80
2022-10-17T05:19:46.474Z,11.60
2022-10-17T05:22:32.092Z,11.60
2022-10-17T05:25:17.888Z,11.70
2022-10-17T05:28:03.461Z,11.80
2022-10-17T05:30:48.900Z,11.60
2022-10-17T05:33:34.623Z,11.70
2022-10-17T05:36:19.889Z,11.70
2022-10-17T05:39:05.559Z,11.80
2022-10-17T05:41:52.434Z,11.80
2022-10-17T05:44:39.310Z,12.50
2022-10-17T05:47:24.840Z,11.60
2022-10-17T05:50:11.132Z,11.60
2022-10-17T05:52:56.624Z,11.80
2022-10-17T05:55:41.845Z,11.80
2022-10-17T06:01:33.862Z,12.20
2022-10-17T06:04:19.436Z,12.00
2022-10-17T06:07:05.272Z,12.00
2022-10-17T06:09:50.694Z,12.60
2022-10-17T06:12:36.231Z,12.00
2022-10-17T06:15:21.436Z,12.00
2022-10-17T06:18:07.078Z,12.00
2022-10-17T06:20:53.353Z,12.50
2022-10-17T06:23:38.944Z,12.10
2022-10-17T06:26:24.427Z,11.90
2022-10-17T06:29:10.531Z,11.90
2022-10-17T06:31:56.238Z,12.60
2022-10-17T06:34:41.475Z,12.20
2022-10-17T06:37:35.312Z,12.10
2022-10-17T06:40:22.476Z,12.10
2022-10-17T06:43:07.891Z,12.20
2022-10-17T06:45:53.252Z,12.30
2022-10-17T06:48:38.931Z,12.50
2022-10-17T06:51:24.262Z,12.60
2022-10-17T06:54:09.562Z,12.70
2022-10-17T06:56:56.171Z,12.90
2022-10-17T06:59:41.404Z,12.90
2022-10-17T07:02:27.416Z,13.00
2022-10-17T07:05:13.434Z,13.60
2022-10-17T07:07:58.987Z,13.10
2022-10-17T07:10:44.566Z,13.20
2022-10-17T07:13:29.809Z,13.20
2022-10-17T07:16:16.458Z,13.40
2022-10-17T07:19:02.068Z,13.50
2022-10-17T07:21:47.646Z,13.60
2022-10-17T07:24:33.313Z,13.50
2022-10-17T07:27:18.919Z,13.60
2022-10-17T07:30:05.014Z,14.30
2022-10-17T07:32:54.401Z,13.80
2022-10-17T07:35:41.042Z,13.80
2022-10-17T07:38:27.898Z,13.80
2022-10-17T07:41:17.891Z,13.90
2022-10-17T07:44:06.569Z,14.10
2022-10-17T07:46:52.203Z,14.20
2022-10-17T07:49:42.474Z,14.30
2022-10-17T07:52:28.246Z,14.40
2022-10-17T07:55:13.899Z,14.60
2022-10-17T07:58:00.540Z,14.70
2022-10-17T08:00:48.576Z,14.90
2022-10-17T08:03:34.505Z,15.10
2022-10-17T08:06:20.247Z,15.20
2022-10-17T08:09:05.594Z,15.70
2022-10-17T08:11:50.864Z,15.40
2022-10-17T08:14:36.423Z,15.60
2022-10-17T08:17:22.003Z,15.70
2022-10-17T08:20:07.839Z,15.70
2022-10-17T08:22:54.683Z,15.80
2022-10-17T08:25:40.097Z,16.30
2022-10-17T08:28:25.555Z,16.20
2022-10-17T08:31:13.920Z,16.00
2022-10-17T08:33:59.266Z,16.80
2022-10-17T08:36:44.824Z,16.50
2022-10-17T08:39:30.432Z,16.50
2022-10-17T08:42:37.046Z,16.50
2022-10-17T08:45:41.030Z,16.50
2022-10-17T08:48:31.583Z,16.50
2022-10-17T08:51:25.069Z,16.70
2022-10-17T08:54:19.525Z,16.80
2022-10-17T08:57:05.529Z,17.70
2022-10-17T08:59:53.458Z,17.10
2022-10-17T09:03:06.232Z,17.30
2022-10-17T09:06:17.245Z,17.30
2022-10-17T09:09:29.927Z,17.60
2022-10-17T09:12:45.648Z,18.00
2022-10-17T09:15:39.903Z,18.30
2022-10-17T09:18:32.029Z,18.60
2022-10-17T09:21:27.068Z,18.90
2022-10-17T09:24:22.466Z,19.50
2022-10-17T09:27:38.050Z,19.20
2022-10-17T09:30:45.110Z,19.20
2022-10-17T09:33:53.938Z,19.40
2022-10-17T09:36:40.816Z,19.50
2022-10-17T09:39:31.814Z,19.60
2022-10-17T09:42:21.736Z,19.90
2022-10-17T09:45:24.763Z,19.90
2022-10-17T09:48:29.787Z,20.10
2022-10-17T09:51:25.779Z,20.50
2022-10-17T09:54:23.177Z,20.70
2022-10-17T09:57:10.649Z,20.30
2022-10-17T10:00:02.594Z,20.20
2022-10-17T10:02:47.655Z,20.40
2022-10-17T10:05:33.452Z,20.90
2022-10-17T10:08:19.841Z,20.90
2022-10-17T10:11:13.352Z,21.00
2022-10-17T10:14:12.264Z,21.50
2022-10-17T10:16:57.938Z,21.80
2022-10-17T10:19:52.149Z,22.50
2022-10-17T10:22:37.811Z,22.70
2022-10-17T10:25:23.447Z,22.80
2022-10-17T10:28:12.073Z,23.00
2022-10-17T10:31:01.259Z,23.60
2022-10-17T10:33:49.569Z,23.70
2022-10-17T10:36:46.001Z,23.70
2022-10-17T10:39:45.943Z,23.60
2022-10-17T10:42:37.072Z,23.00
2022-10-17T10:48:35.379Z,22.10
2022-10-17T10:51:44.301Z,22.10
2022-10-17T10:54:36.951Z,22.70
2022-10-17T10:57:25.492Z,22.70
2022-10-17T11:00:19.499Z,22.70
2022-10-17T11:03:23.905Z,23.40
2022-10-17T11:06:27.125Z,24.30
2022-10-17T11:09:42.808Z,24.50
2022-10-17T11:12:36.637Z,24.70
2022-10-17T11:15:34.794Z,24.80
2022-10-17T11:18:35.736Z,24.20
2022-10-17T11:21:47.625Z,23.70
2022-10-17T11:25:03.718Z,24.20
2022-10-17T11:27:49.502Z,24.90
2022-10-17T11:30:56.452Z,25.20
2022-10-17T11:33:58.503Z,25.80
2022-10-17T11:36:45.624Z,25.90
2022-10-17T11:39:57.852Z,25.90
2022-10-17T11:43:11.337Z,26.30
2022-10-17T11:46:06.295Z,26.40
2022-10-17T11:49:17.396Z,26.40
2022-10-17T11:52:31.883Z,26.90
2022-10-17T11:55:30.597Z,27.10
2022-10-17T11:59:10.191Z,27.40
2022-10-17T12:02:01.924Z,26.40
2022-10-17T12:05:12.418Z,26.00
2022-10-17T12:08:10.365Z,26.20
2022-10-17T12:11:05.997Z,26.80
2022-10-17T12:13:54.549Z,27.10
2022-10-17T12:16:45.193Z,26.80
2022-10-17T12:19:37.604Z,26.90
2022-10-17T12:22:28.664Z,26.10
2022-10-17T12:25:35.374Z,26.60
2022-10-17T12:28:29.608Z,27.00
2022-10-17T12:31:19.030Z,26.90
2022-10-17T12:34:05.524Z,27.00
2022-10-17T12:36:51.185Z,26.50
2022-10-17T12:39:36.576Z,26.80
2022-10-17T12:42:33.478Z,26.90
2022-10-17T12:45:49.971Z,26.60
2022-10-17T12:48:38.784Z,26.40
2022-10-17T12:51:40.721Z,27.00
2022-10-17T12:54:26.340Z,26.90
2022-10-17T12:57:31.446Z,26.70
2022-10-17T13:00:43.879Z,26.90
2022-10-17T13:03:44.366Z,27.30
2022-10-17T13:06:37.782Z,27.10
2022-10-17T13:09:23.214Z,26.80
2022-10-17T13:12:14.936Z,26.90
2022-10-17T13:15:01.132Z,27.00
2022-10-17T13:17:59.648Z,27.40
2022-10-17T13:20:57.934Z,26.90
2022-10-17T13:23:43.492Z,26.20
2022-10-17T13:26:29.198Z,26.50
2022-10-17T13:29:16.012Z,27.10
2022-10-17T13:32:05.415Z,27.30
2022-10-17T13:35:10.907Z,28.20
2022-10-17T13:37:57.233Z,28.60
2022-10-17T13:40:49.954Z,29.10
2022-10-17T13:43:35.609Z,29.20
2022-10-17T13:46:40.173Z,29.30
2022-10-17T13:49:36.968Z,29.50
2022-10-17T13:52:25.817Z,29.00
2022-10-17T13:55:17.911Z,29.10
2022-10-17T13:58:17.776Z,28.90
2022-10-17T14:01:03.319Z,29.00
2022-10-17T14:03:57.060Z,29.10
2022-10-17T14:06:51.192Z,29.10
2022-10-17T14:09:37.241Z,29.30
2022-10-17T14:12:22.971Z,29.20
2022-10-17T14:15:15.154Z,29.00
2022-10-17T14:18:09.157Z,29.00
2022-10-17T14:21:32.139Z,29.40
2022-10-17T14:24:27.848Z,29.20
2022-10-17T14:27:42.478Z,29.10
2022-10-17T14:33:36.386Z,29.60
2022-10-17T14:36:33.824Z,30.00
2022-10-17T14:39:23.100Z,29.70
2022-10-17T14:42:18.777Z,29.90
2022-10-17T14:45:09.561Z,29.90
2022-10-17T14:48:00.143Z,29.90
2022-10-17T14:51:15.417Z,29.60
2022-10-17T14:54:22.169Z,29.20
2022-10-17T14:57:28.227Z,29.20
2022-10-17T15:00:18.815Z,29.00
2022-10-17T15:03:04.298Z,28.80
2022-10-17T15:05:50.972Z,28.70
2022-10-17T15:08:36.349Z,28.60
2022-10-17T15:11:21.755Z,28.20
2022-10-17T15:14:07.320Z,27.90
2022-10-17T15:16:52.975Z,27.40
2022-10-17T15:19:38.175Z,26.90
2022-10-17T15:22:24.315Z,26.60
2022-10-17T15:25:10.116Z,26.30
2022-10-17T15:27:56.311Z,25.80
2022-10-17T15:30:41.921Z,25.70
2022-10-17T15:33:31.224Z,25.50
2022-10-17T15:36:40.545Z,25.30
2022-10-17T15:39:26.210Z,24.90
2022-10-17T15:42:12.517Z,24.70
2022-10-17T15:44:58.474Z,24.40
2022-10-17T15:47:49.827Z,24.20
2022-10-17T15:50:35.459Z,24.00
2022-10-17T15:53:20.739Z,23.80
2022-10-17T15:56:06.699Z,23.60
2022-10-17T15:58:52.247Z,23.50
2022-10-17T16:01:39.307Z,23.30
2022-10-17T16:04:27.192Z,23.20
2022-10-17T16:07:12.675Z,23.20
2022-10-17T16:09:58.272Z,23.10
2022-10-17T16:12:44.187Z,23.10
2022-10-17T16:15:29.826Z,23.00
2022-10-17T16:18:15.312Z,23.00
2022-10-17T16:21:00.704Z,22.90
2022-10-17T16:23:46.408Z,22.70
2022-10-17T16:26:32.363Z,22.60
2022-10-17T16:29:17.754Z,22.30
2022-10-17T16:32:03.237Z,22.20
2022-10-17T16:34:48.440Z,22.30
2022-10-17T16:37:34.016Z,22.00
2022-10-17T16:40:19.953Z,21.70
2022-10-17T16:43:05.524Z,21.30
2022-10-17T16:45:50.798Z,21.10
2022-10-17T16:48:36.303Z,21.00
2022-10-17T16:51:22.000Z,21.20
2022-10-17T16:54:07.402Z,20.70
2022-10-17T16:56:52.636Z,20.60
2022-10-17T16:59:38.062Z,20.60
2022-10-17T17:02:23.705Z,20.40
2022-10-17T17:05:09.495Z,20.20
2022-10-17T17:07:56.049Z,20.10
2022-10-17T17:10:54.180Z,19.90
2022-10-17T17:13:40.800Z,19.80
2022-10-17T17:16:27.721Z,19.60
2022-10-17T17:19:15.249Z,19.70
2022-10-17T17:22:00.493Z,19.30
2022-10-17T17:24:46.137Z,19.00
2022-10-17T17:27:31.830Z,19.30
2022-10-17T17:30:17.777Z,19.60
2022-10-17T17:33:03.208Z,18.90
2022-10-17T17:35:53.585Z,18.80
2022-10-17T17:38:41.217Z,18.70
2022-10-17T17:41:27.388Z,18.70
2022-10-17T17:44:16.601Z,18.60
2022-10-17T17:47:02.453Z,18.50
2022-10-17T17:49:48.443Z,18.50
2022-10-17T17:52:34.002Z,18.40
2022-10-17T17:55:19.679Z,18.40
2022-10-17T17:58:06.168Z,18.30
2022-10-17T18:00:51.623Z,18.30
2022-10-17T18:03:39.673Z,18.30
2022-10-17T18:06:26.236Z,18.10
2022-10-17T18:09:11.886Z,18.40
2022-10-17T18:11:57.493Z,17.90
2022-10-17T18:14:43.075Z,18.20
2022-10-17T18:17:28.302Z,17.90
2022-10-17T18:20:14.176Z,17.30
2022-10-17T18:23:01.978Z,17.30
2022-10-17T18:25:57.264Z,17.10
2022-10-17T18:28:43.548Z,17.10
2022-10-17T18:31:32.060Z,17.00
2022-10-17T18:34:18.184Z,16.90
2022-10-17T18:37:03.914Z,16.90
2022-10-17T18:39:51.605Z,16.90
2022-10-17T18:42:37.347Z,16.70
2022-10-17T18:45:23.053Z,16.60
2022-10-17T18:48:10.018Z,16.50
2022-10-17T18:50:55.516Z,16.50
2022-10-17T18:53:42.770Z,16.60
2022-10-17T18:56:28.486Z,16.60
2022-10-17T18:59:14.000Z,16.60
2022-10-17T19:01:59.774Z,16.50
2022-10-17T19:04:45.660Z,16.70
2022-10-17T19:07:31.569Z,16.60
2022-10-17T19:10:17.422Z,16.90
2022-10-17T19:13:02.722Z,16.60
2022-10-17T19:15:48.311Z,16.50
2022-10-17T19:18:35.096Z,16.60
2022-10-17T19:21:21.981Z,16.60
2022-10-17T19:24:13.227Z,16.60
2022-10-17T19:27:02.694Z,16.50
2022-10-17T19:29:48.263Z,16.40
2022-10-17T19:32:34.243Z,16.40
2022-10-17T19:35:19.521Z,16.20
2022-10-17T19:38:05.275Z,16.20
2022-10-17T19:40:50.783Z,16.10
2022-10-17T19:43:37.664Z,16.00
2022-10-17T19:46:26.370Z,16.20
2022-10-17T19:49:12.107Z,16.20
2022-10-17T19:51:57.356Z,15.50
2022-10-17T19:54:42.885Z,15.60
2022-10-17T19:57:28.473Z,15.50
2022-10-17T20:00:14.829Z,16.30
2022-10-17T20:03:02.399Z,15.50
2022-10-17T20:05:48.000Z,15.90
2022-10-17T20:08:33.573Z,15.50
2022-10-17T20:11:21.742Z,17.30
2022-10-17T20:14:07.237Z,15.50
2022-10-17T20:16:52.753Z,15.50
2022-10-17T20:19:37.880Z,15.60
2022-10-17T20:22:23.772Z,15.50
2022-10-17T20:25:09.157Z,15.60
2022-10-17T20:27:54.590Z,15.60
2022-10-17T20:30:46.056Z,15.60
2022-10-17T20:33:32.146Z,16.70
2022-10-17T20:36:20.181Z,15.50
2022-10-17T20:39:07.260Z,15.50
2022-10-17T20:41:52.662Z,15.40
2022-10-17T20:44:37.967Z,15.40
2022-10-17T20:47:43.552Z,15.40
2022-10-17T20:50:29.128Z,16.40
2022-10-17T20:53:35.978Z,15.20
2022-10-17T20:56:23.353Z,15.70
2022-10-17T20:59:12.695Z,15.10
2022-10-17T21:01:58.332Z,15.10
2022-10-17T21:04:46.663Z,16.60
2022-10-17T21:07:32.950Z,15.20
2022-10-17T21:10:35.265Z,15.20
2022-10-17T21:13:21.157Z,15.20
2022-10-17T21:16:14.911Z,15.30
2022-10-17T21:19:00.712Z,15.30
2022-10-17T21:21:46.769Z,15.90
2022-10-17T21:24:32.299Z,15.20
2022-10-17T21:27:19.031Z,15.30
2022-10-17T21:30:05.291Z,15.30
2022-10-17T21:32:54.632Z,15.40
2022-10-17T21:35:40.526Z,16.80
2022-10-17T21:38:25.922Z,15.50
2022-10-17T21:41:12.648Z,15.40
2022-10-17T21:44:00.529Z,15.20
2022-10-17T21:46:46.722Z,15.10
2022-10-17T21:49:32.294Z,15.20
2022-10-17T21:52:17.682Z,15.30
2022-10-17T21:55:03.487Z,15.20
2022-10-17T21:57:49.671Z,15.40
2022-10-17T22:00:35.243Z,15.40
2022-10-17T22:03:20.706Z,15.60
2022-10-17T22:06:26.593Z,15.70
2022-10-17T22:09:16.003Z,15.40
2022-10-17T22:12:01.282Z,15.40
2022-10-17T22:14:46.673Z,15.40
2022-10-17T22:17:32.428Z,15.40
2022-10-17T22:20:18.163Z,15.40
2022-10-17T22:23:04.223Z,15.40
2022-10-17T22:25:54.059Z,15.50
2022-10-17T22:28:41.055Z,15.50
2022-10-17T22:31:26.482Z,16.30
2022-10-17T22:34:14.002Z,15.60
2022-10-17T22:36:59.729Z,15.60
2022-10-17T22:39:45.099Z,15.90
2022-10-17T22:42:33.105Z,15.90
2022-10-17T22:45:21.331Z,15.80
2022-10-17T22:48:07.137Z,15.90
2022-10-17T22:50:53.432Z,15.80
2022-10-17T22:53:39.033Z,16.70
2022-10-17T22:56:24.696Z,15.80
2022-10-17T22:59:09.949Z,15.80
2022-10-17T23:01:55.558Z,15.80
2022-10-17T23:04:41.729Z,15.80
2022-10-17T23:07:27.789Z,15.90
2022-10-17T23:10:13.235Z,15.90
2022-10-17T23:12:58.779Z,15.90
2022-10-17T23:15:44.463Z,16.00
2022-10-17T23:21:16.257Z,16.00
2022-10-17T23:24:01.686Z,16.70
2022-10-17T23:26:47.223Z,16.00
2022-10-17T23:29:34.082Z,16.00
2022-10-17T23:32:21.096Z,16.00
2022-10-17T23:35:07.543Z,16.00
2022-10-17T23:37:53.094Z,15.90
2022-10-17T23:40:38.689Z,15.90
2022-10-17T23:43:26.538Z,15.90
2022-10-17T23:46:12.070Z,15.90
2022-10-17T23:48:57.570Z,15.80
2022-10-17T23:51:43.198Z,15.90
2022-10-17T23:54:28.911Z,15.90
2022-10-17T23:57:14.847Z,15.80
